Time;durP1;ratioP1;P1;durP2;ratioP2;P2;SDS_P1;SDS_P2;PMS_P1;PMS_P2;Temp;Humidity;BMP_temperature;BMP_pressure;BME280_temperature;BME280_humidity;BME280_pressure;Samples;Min_cycle;Max_cycle;Signal;HPM_P1;HPM_P2
2023/03/21 00:00:23;;;;;;;17.52;6.08;;;;;;;8.64;82.14;101295.73;1796608;80;21058;-40
2023/03/21 00:02:51;;;;;;;16.97;5.58;;;;;;;8.67;82.17;101294.83;1796712;80;21154;-39
2023/03/21 00:05:19;;;;;;;12.95;4.30;;;;;;;8.69;82.12;101295.65;1796225;79;21208;-39
2023/03/21 00:07:48;;;;;;;13.08;3.92;;;;;;;8.70;82.14;101301.30;1801172;79;21144;-38
2023/03/21 00:10:16;;;;;;;16.17;6.22;;;;;;;8.71;82.20;101292.53;1796212;80;21074;-38
2023/03/21 00:12:49;;;;;;;9.40;3.47;;;;;;;8.72;82.36;101292.94;1796570;80;21034;-38
2023/03/21 00:15:17;;;;;;;12.25;4.17;;;;;;;8.72;82.45;101296.88;1769941;80;21094;-38
2023/03/21 00:17:49;;;;;;;8.93;3.98;;;;;;;8.72;82.46;101292.08;1766056;80;21133;-38
2023/03/21 00:20:16;;;;;;;11.10;4.70;;;;;;;8.74;82.40;101291.59;1785222;79;21070;-38
2023/03/21 00:22:44;;;;;;;10.30;4.10;;;;;;;8.75;82.32;101294.19;1796727;80;21058;-38
2023/03/21 00:25:13;;;;;;;9.95;2.90;;;;;;;8.75;82.43;101291.56;1796437;80;21106;-38
2023/03/21 00:27:42;;;;;;;8.90;3.10;;;;;;;8.76;82.48;101291.99;1794725;79;21065;-38
2023/03/21 00:30:12;;;;;;;9.10;3.17;;;;;;;8.79;82.54;101293.67;1757235;81;21129;-39
2023/03/21 00:32:42;;;;;;;5.78;2.40;;;;;;;8.80;82.59;101292.33;1732954;81;21070;-38
2023/03/21 00:35:11;;;;;;;9.38;2.22;;;;;;;8.83;82.54;101292.23;1763545;81;21191;-39
2023/03/21 00:37:40;;;;;;;6.35;1.70;;;;;;;8.83;82.53;101284.36;1767648;80;21058;-38
2023/03/21 00:40:11;;;;;;;2.77;1.37;;;;;;;8.85;82.54;101290.47;1793794;80;21077;-39
2023/03/21 00:42:39;;;;;;;3.62;0.75;;;;;;;8.87;82.53;101295.66;1782959;80;21137;-40
2023/03/21 00:45:09;;;;;;;0.98;0.60;;;;;;;8.89;82.46;101294.75;1792193;79;21212;-39
2023/03/21 00:47:37;;;;;;;3.50;0.80;;;;;;;8.93;82.38;101295.97;1799232;79;21557;-38
2023/03/21 00:50:08;;;;;;;1.05;0.65;;;;;;;8.95;82.24;101295.51;1793462;80;21525;-38
2023/03/21 00:52:37;;;;;;;1.20;0.60;;;;;;;8.95;82.12;101296.36;1763832;81;21060;-39
2023/03/21 00:55:06;;;;;;;1.07;0.68;;;;;;;8.96;82.06;101296.76;1772508;80;21133;-40
2023/03/21 00:57:35;;;;;;;1.87;0.70;;;;;;;8.96;82.02;101291.50;1770925;81;21140;-39
2023/03/21 01:00:06;;;;;;;1.67;0.70;;;;;;;8.98;81.91;101292.78;1768212;81;21270;-39
2023/03/21 01:02:36;;;;;;;0.98;0.60;;;;;;;8.96;81.86;101294.59;1777473;80;21058;-39
2023/03/21 01:05:06;;;;;;;2.10;0.70;;;;;;;8.93;81.91;101292.02;1781334;80;21034;-39
2023/03/21 01:07:34;;;;;;;0.75;0.60;;;;;;;8.92;81.94;101292.95;1771653;81;21069;-39
2023/03/21 01:10:03;;;;;;;0.62;0.40;;;;;;;8.90;81.88;101287.72;1764158;80;21231;-41
2023/03/21 01:12:32;;;;;;;0.60;0.40;;;;;;;8.91;81.85;101292.52;1779738;80;21168;-38
2023/03/21 01:15:00;;;;;;;0.55;0.40;;;;;;;8.88;81.88;101290.38;1764170;80;21064;-38
2023/03/21 01:17:29;;;;;;;0.95;0.60;;;;;;;8.89;81.76;101283.39;1774538;81;21149;-38
2023/03/21 01:19:58;;;;;;;0.45;0.40;;;;;;;8.89;81.69;101280.30;1757954;81;21082;-40
2023/03/21 01:22:26;;;;;;;0.93;0.40;;;;;;;8.88;81.72;101285.13;1772126;81;21054;-39
2023/03/21 01:24:55;;;;;;;0.30;0.30;;;;;;;8.88;81.72;101285.13;1760913;80;21122;-39
2023/03/21 01:27:24;;;;;;;0.40;0.40;;;;;;;8.88;81.66;101287.75;1770094;80;21094;-39
2023/03/21 01:29:52;;;;;;;0.30;0.30;;;;;;;8.86;81.67;101289.55;1773342;79;21166;-39
2023/03/21 01:32:21;;;;;;;0.65;0.40;;;;;;;8.85;81.68;101299.66;1773081;79;21070;-38
2023/03/21 01:34:50;;;;;;;0.30;0.30;;;;;;;8.84;81.70;101295.75;1764703;79;21075;-39
2023/03/21 01:37:19;;;;;;;1.65;0.30;;;;;;;8.84;81.67;101291.81;1786807;80;21529;-38
2023/03/21 01:39:50;;;;;;;0.70;0.40;;;;;;;8.84;81.64;101295.75;1730565;82;21133;-38
2023/03/21 01:42:19;;;;;;;0.45;0.33;;;;;;;8.83;81.62;101294.01;1744645;81;21500;-39
2023/03/21 01:45:00;;;;;;;0.35;0.30;;;;;;;8.82;81.64;101294.92;1772941;81;21241;-39
2023/03/21 01:47:42;;;;;;;0.28;0.28;;;;;;;8.81;81.62;101295.35;1760484;81;21120;-41
2023/03/21 01:50:13;;;;;;;0.40;0.40;;;;;;;8.80;81.59;101297.58;1762444;81;21130;-40
2023/03/21 01:52:48;;;;;;;0.30;0.30;;;;;;;8.81;81.52;101296.66;1768116;81;21122;-41
2023/03/21 01:55:20;;;;;;;0.55;0.35;;;;;;;8.81;81.46;101296.66;1743722;81;21189;-41
2023/03/21 01:57:57;;;;;;;0.80;0.40;;;;;;;8.83;81.41;101292.70;1743026;80;21624;-39
2023/03/21 02:00:28;;;;;;;0.40;0.40;;;;;;;8.82;81.33;101291.84;1753858;81;21530;-38
2023/03/21 02:03:02;;;;;;;0.40;0.40;;;;;;;8.83;81.24;101296.64;1761338;81;21116;-39
2023/03/21 02:05:49;;;;;;;;;;;;;;;8.83;81.17;101300.58;1757729;81;21131;-38
2023/03/21 02:08:19;;;;;;;0.45;0.33;;;;;;;8.82;81.08;101290.53;1739886;82;20125;-39
2023/03/21 02:10:49;;;;;;;0.40;0.30;;;;;;;8.81;80.96;101303.69;1756189;81;21462;-38
2023/03/21 02:13:19;;;;;;;0.47;0.40;;;;;;;8.80;80.93;101300.20;1736714;81;21093;-39
2023/03/21 02:15:57;;;;;;;1.45;0.45;;;;;;;8.81;80.88;101304.55;1749876;81;21150;-39
2023/03/21 02:18:33;;;;;;;3.27;0.50;;;;;;;8.80;80.81;101309.86;1727698;81;21121;-42
2023/03/21 02:21:23;;;;;;;5.25;0.60;;;;;;;8.81;80.84;101307.17;1743225;81;21256;-40
2023/03/21 02:24:15;;;;;;;3.62;0.98;;;;;;;8.81;80.79;101312.42;1755446;81;21134;-39
2023/03/21 02:27:10;;;;;;;0.53;0.53;;;;;;;8.83;80.74;101313.70;1714845;82;21102;-40
2023/03/21 02:29:50;;;;;;;0.35;0.35;;;;;;;8.85;80.67;101318.05;1756161;81;21162;-40
2023/03/21 02:32:27;;;;;;;0.42;0.40;;;;;;;8.86;80.62;101315.81;1763971;81;21174;-40
2023/03/21 02:35:18;;;;;;;0.70;0.45;;;;;;;8.87;80.58;101312.30;1735680;81;21099;-39
2023/03/21 02:37:52;;;;;;;0.88;0.50;;;;;;;8.89;80.55;101314.44;1763713;81;21071;-39
2023/03/21 02:40:26;;;;;;;1.72;0.60;;;;;;;8.91;80.53;101323.60;1761132;80;21164;-41
2023/03/21 02:43:05;;;;;;;2.87;0.40;;;;;;;8.92;80.51;101318.75;1765185;80;21515;-41
2023/03/21 02:45:44;;;;;;;0.20;0.20;;;;;;;8.95;80.43;101319.14;1796629;80;21579;-41
2023/03/21 02:48:25;;;;;;;1.87;0.40;;;;;;;8.97;80.39;101320.83;1796129;80;21173;-40
2023/03/21 02:50:56;;;;;;;0.68;0.40;;;;;;;8.99;80.29;101315.55;1772562;79;21199;-40
2023/03/21 02:53:27;;;;;;;2.08;0.30;;;;;;;9.02;80.23;101324.67;1747642;81;21608;-40
2023/03/21 02:55:58;;;;;;;0.40;0.30;;;;;;;9.03;80.20;101321.98;1731347;81;21093;-41
2023/03/21 02:58:30;;;;;;;1.22;0.45;;;;;;;9.05;80.19;101316.70;1762593;80;21125;-39
2023/03/21 03:00:59;;;;;;;0.90;0.40;;;;;;;9.07;80.16;101316.21;1749628;81;21154;-39
2023/03/21 03:03:30;;;;;;;1.42;0.40;;;;;;;9.07;80.13;101324.09;1720561;83;21185;-40
2023/03/21 03:06:02;;;;;;;1.22;0.40;;;;;;;9.08;80.07;101320.12;1813175;79;21537;-39
2023/03/21 03:08:36;;;;;;;1.45;0.50;;;;;;;9.08;80.08;101323.20;1746591;81;21056;-39
2023/03/21 03:11:10;;;;;;;1.00;0.72;;;;;;;9.07;80.05;101319.73;1730773;81;21078;-40
2023/03/21 03:13:45;;;;;;;2.85;2.55;;;;;;;9.08;80.03;101323.20;1751860;81;21525;-39
2023/03/21 03:16:24;;;;;;;3.37;2.40;;;;;;;9.08;80.01;101325.37;1735566;81;21658;-39
2023/03/21 03:19:02;;;;;;;2.98;1.45;;;;;;;9.10;79.99;101327.97;1747621;81;21097;-40
2023/03/21 03:21:41;;;;;;;2.72;0.50;;;;;;;9.12;79.95;101330.57;1747502;81;21181;-39
2023/03/21 03:24:19;;;;;;;0.95;0.60;;;;;;;9.10;79.98;101330.59;1740336;81;21079;-39
2023/03/21 03:26:54;;;;;;;0.45;0.45;;;;;;;9.10;79.96;101328.44;1762176;80;21042;-40
2023/03/21 03:29:26;;;;;;;1.12;0.40;;;;;;;9.11;79.92;101336.28;1763802;80;21125;-38
2023/03/21 03:32:01;;;;;;;2.17;0.60;;;;;;;9.11;79.88;101333.66;1751766;81;21184;-39
2023/03/21 03:34:40;;;;;;;0.80;0.50;;;;;;;9.11;79.88;101341.53;1762711;81;21158;-39
2023/03/21 03:37:12;;;;;;;0.72;0.50;;;;;;;9.13;79.89;101338.84;1763110;81;21172;-39
2023/03/21 03:39:44;;;;;;;1.55;0.50;;;;;;;9.14;79.83;101338.81;1724539;81;21059;-39
2023/03/21 03:42:22;;;;;;;0.78;0.47;;;;;;;9.16;79.76;101336.16;1761240;81;21109;-39
2023/03/21 03:44:55;;;;;;;8.18;0.80;;;;;;;9.17;79.74;101342.70;1796023;80;21114;-38
2023/03/21 03:47:43;;;;;;;2.92;0.60;;;;;;;9.18;79.71;101343.09;1796218;80;21465;-39
2023/03/21 03:50:27;;;;;;;0.40;0.40;;;;;;;9.18;79.71;101348.80;1801288;79;21532;-39
2023/03/21 03:53:24;;;;;;;0.30;0.30;;;;;;;9.19;79.65;101348.78;1796768;80;21058;-39
2023/03/21 03:55:56;;;;;;;2.70;1.25;;;;;;;9.21;79.60;101345.66;1801187;79;21204;-38
2023/03/21 03:58:26;;;;;;;1.65;0.78;;;;;;;9.22;79.52;101348.71;1796238;80;21057;-39
2023/03/21 04:00:55;;;;;;;2.30;1.12;;;;;;;9.25;79.47;101355.19;1796431;80;21612;-39
2023/03/21 04:03:24;;;;;;;2.62;1.15;;;;;;;9.26;79.45;101348.19;1796344;80;21089;-43
2023/03/21 04:05:53;;;;;;;3.05;1.50;;;;;;;9.24;79.54;101352.59;1796479;80;21125;-39
2023/03/21 04:08:22;;;;;;;1.62;0.70;;;;;;;9.25;79.53;101355.19;1796621;80;21050;-39
2023/03/21 04:10:52;;;;;;;0.68;0.53;;;;;;;9.27;79.50;101356.47;1756590;80;21172;-39
2023/03/21 04:13:21;;;;;;;0.88;0.75;;;;;;;9.28;79.49;101359.53;1739277;81;21128;-40
2023/03/21 04:15:54;;;;;;;1.95;0.60;;;;;;;9.27;79.48;101361.27;1790916;78;21101;-39
2023/03/21 04:18:23;;;;;;;1.47;0.70;;;;;;;9.28;79.49;101364.33;1828164;78;21548;-39
2023/03/21 04:20:52;;;;;;;1.17;0.57;;;;;;;9.29;79.51;101361.23;1821156;78;21078;-38
2023/03/21 04:23:22;;;;;;;1.55;0.60;;;;;;;9.30;79.48;101364.30;1796997;78;21026;-40
2023/03/21 04:25:51;;;;;;;0.40;0.40;;;;;;;9.31;79.47;101370.41;1797471;78;21703;-40
2023/03/21 04:28:20;;;;;;;1.02;0.50;;;;;;;9.33;79.44;101368.59;1804378;78;21058;-43
2023/03/21 04:30:51;;;;;;;1.52;0.82;;;;;;;9.33;79.41;101367.28;1792266;80;21585;-38
2023/03/21 04:33:21;;;;;;;0.78;0.68;;;;;;;9.35;79.38;101372.05;1766481;81;21179;-39
2023/03/21 04:35:55;;;;;;;1.00;0.60;;;;;;;9.35;79.40;101375.99;1761665;81;21122;-39
2023/03/21 04:38:32;;;;;;;0.75;0.47;;;;;;;9.36;79.36;101371.17;1771549;81;21741;-39
2023/03/21 04:40:58;;;;;;;0.47;0.40;;;;;;;9.39;79.32;101375.90;1763195;80;21122;-39
2023/03/21 04:43:27;;;;;;;2.10;0.80;;;;;;;9.42;79.28;101371.01;1776861;81;21062;-38
2023/03/21 04:45:57;;;;;;;0.65;0.50;;;;;;;9.44;79.24;101375.34;1763888;81;21078;-39
2023/03/21 04:48:26;;;;;;;0.57;0.40;;;;;;;9.47;79.20;101378.34;1776892;81;21193;-39
2023/03/21 04:50:55;;;;;;;2.95;0.70;;;;;;;9.49;79.17;101381.79;1763754;81;21236;-39
2023/03/21 04:53:23;;;;;;;1.47;0.88;;;;;;;9.51;79.09;101385.24;1776960;81;21044;-39
2023/03/21 04:55:52;;;;;;;0.55;0.40;;;;;;;9.55;78.98;101386.89;1763914;81;21187;-39
2023/03/21 04:58:21;;;;;;;0.50;0.50;;;;;;;9.57;78.92;101379.86;1776880;81;21059;-39
2023/03/21 05:00:51;;;;;;;1.47;0.68;;;;;;;9.60;78.84;101381.53;1763958;81;21046;-39
2023/03/21 05:03:21;;;;;;;3.50;0.80;;;;;;;9.63;78.76;101383.64;1776855;81;21083;-39
2023/03/21 05:05:50;;;;;;;1.07;0.60;;;;;;;9.65;78.62;101388.41;1763942;81;21062;-39
2023/03/21 05:08:20;;;;;;;0.93;0.70;;;;;;;9.66;78.60;101386.20;1753295;81;21574;-39
2023/03/21 05:10:49;;;;;;;1.17;0.40;;;;;;;9.69;78.59;101387.88;1764043;81;21576;-39
2023/03/21 05:13:17;;;;;;;2.25;1.00;;;;;;;9.73;78.52;101399.19;1777058;81;21611;-39
2023/03/21 05:15:46;;;;;;;1.20;0.70;;;;;;;9.74;78.47;101394.32;1763915;81;21619;-39
2023/03/21 05:18:23;;;;;;;1.70;0.98;;;;;;;9.75;78.41;101390.80;1777079;80;21542;-39
2023/03/21 05:20:52;;;;;;;2.90;0.90;;;;;;;9.76;78.38;101393.86;1760894;81;21078;-39
2023/03/21 05:23:18;;;;;;;1.22;0.60;;;;;;;9.81;78.35;101402.47;1776526;81;21067;-39
2023/03/21 05:25:47;;;;;;;0.80;0.68;;;;;;;9.83;78.08;101403.30;1764057;81;21196;-39
2023/03/21 05:28:17;;;;;;;0.60;0.50;;;;;;;9.86;78.09;101407.17;1776034;81;21138;-40
2023/03/21 05:30:47;;;;;;;4.15;0.80;;;;;;;9.90;78.06;101403.55;1764105;81;21501;-39
2023/03/21 05:33:15;;;;;;;0.93;0.78;;;;;;;9.94;78.00;101399.97;1776983;81;21134;-39
2023/03/21 05:35:44;;;;;;;1.95;0.80;;;;;;;9.98;77.92;101408.19;1764022;81;21110;-39
2023/03/21 05:38:14;;;;;;;2.15;0.70;;;;;;;10.01;77.84;101402.86;1777062;81;21562;-39
2023/03/21 05:40:49;;;;;;;1.52;0.82;;;;;;;10.03;77.77;101403.67;1762170;81;21171;-39
2023/03/21 05:43:17;;;;;;;;;;;;;;;10.07;77.68;101400.94;1779547;80;21090;-39
2023/03/21 05:45:47;;;;;;;2.58;0.47;;;;;;;10.09;77.64;101407.91;1776957;81;20120;-39
2023/03/21 05:48:16;;;;;;;1.77;0.68;;;;;;;10.11;77.58;101409.19;1763903;81;21098;-39
2023/03/21 05:51:04;;;;;;;0.93;0.50;;;;;;;10.13;77.52;101410.02;1776930;81;21079;-39
2023/03/21 05:53:32;;;;;;;2.08;0.70;;;;;;;10.15;77.48;101413.46;1763831;81;21588;-39
2023/03/21 05:56:01;;;;;;;1.20;0.68;;;;;;;10.15;77.47;101418.72;1777032;81;21169;-39
2023/03/21 05:58:34;;;;;;;3.22;0.47;;;;;;;10.18;77.46;101419.51;1762644;81;21113;-38
2023/03/21 06:01:04;;;;;;;0.95;0.60;;;;;;;10.21;77.46;101418.09;1776987;81;21505;-39
2023/03/21 06:03:33;;;;;;;1.22;0.80;;;;;;;10.25;77.40;101417.55;1764028;81;21062;-39
2023/03/21 06:06:03;;;;;;;3.20;0.80;;;;;;;10.29;77.36;101416.59;1774617;81;21172;-39
2023/03/21 06:08:36;;;;;;;;;;;;;;;10.31;77.28;101413.50;1766155;80;21546;-39
2023/03/21 06:11:06;;;;;;;5.40;1.07;;;;;;;10.34;77.05;101419.12;1763926;81;20129;-39
2023/03/21 06:13:34;;;;;;;0.93;0.60;;;;;;;10.39;76.97;101415.45;1777041;81;21075;-39
2023/03/21 06:16:04;;;;;;;2.47;0.57;;;;;;;10.45;76.87;101418.83;1764024;81;21545;-39
2023/03/21 06:18:34;;;;;;;1.45;0.68;;;;;;;10.50;76.70;101414.30;1776745;81;21122;-39
2023/03/21 06:21:04;;;;;;;1.30;0.70;;;;;;;10.57;76.52;101417.18;1761456;81;21101;-39
2023/03/21 06:23:33;;;;;;;3.02;0.60;;;;;;;10.61;76.37;101418.81;1777104;81;21140;-39
2023/03/21 06:26:02;;;;;;;3.47;0.80;;;;;;;10.70;76.39;101422.50;1763902;81;21042;-39
2023/03/21 06:28:32;;;;;;;3.85;0.90;;;;;;;10.77;76.28;101410.89;1776944;80;21073;-38
2023/03/21 06:31:00;;;;;;;3.72;0.88;;;;;;;10.82;75.95;101413.37;1764019;80;21231;-39
2023/03/21 06:33:30;;;;;;;1.35;0.60;;;;;;;10.82;75.68;101416.86;1776666;81;21583;-39
2023/03/21 06:35:59;;;;;;;0.82;0.70;;;;;;;10.80;75.38;101421.31;1763965;81;21122;-39
2023/03/21 06:38:30;;;;;;;3.10;1.15;;;;;;;10.85;75.35;101417.70;1776937;81;21550;-39
2023/03/21 06:41:03;;;;;;;3.42;1.00;;;;;;;10.90;75.43;101415.77;1764080;81;21173;-39
2023/03/21 06:43:31;;;;;;;6.97;0.78;;;;;;;10.97;75.35;101412.05;1782515;80;21193;-39
2023/03/21 06:46:02;;;;;;;4.45;0.90;;;;;;;10.99;74.87;101413.75;1764241;81;21610;-39
2023/03/21 06:48:32;;;;;;;6.95;0.65;;;;;;;11.07;74.81;101408.24;1785890;80;21086;-39
2023/03/21 06:51:01;;;;;;;3.77;0.65;;;;;;;11.12;74.65;101405.02;1764503;81;21082;-39
2023/03/21 06:53:32;;;;;;;3.33;0.55;;;;;;;11.12;74.16;101413.36;1785689;80;21557;-39
2023/03/21 06:56:09;;;;;;;0.65;0.47;;;;;;;11.13;74.20;101408.05;1762451;80;21181;-39
2023/03/21 06:58:39;;;;;;;1.50;0.40;;;;;;;11.14;73.87;101412.42;1785738;80;21071;-39
2023/03/21 07:01:09;;;;;;;3.30;0.55;;;;;;;11.15;73.90;101411.49;1764463;80;21134;-39
2023/03/21 07:03:40;;;;;;;0.40;0.40;;;;;;;11.16;73.68;101410.59;1785016;80;21094;-39
2023/03/21 07:06:10;;;;;;;2.25;1.00;;;;;;;11.16;73.68;101404.47;1764464;81;21131;-40
2023/03/21 07:08:40;;;;;;;5.15;0.75;;;;;;;11.16;73.52;101412.38;1785813;80;21126;-39
2023/03/21 07:11:10;;;;;;;2.45;0.62;;;;;;;11.14;73.21;101407.15;1764534;81;21149;-39
2023/03/21 07:13:38;;;;;;;2.72;0.70;;;;;;;11.15;73.26;101408.86;1785705;80;21141;-42
2023/03/21 07:16:09;;;;;;;4.72;0.70;;;;;;;11.18;73.23;101403.50;1764402;81;21615;-39
2023/03/21 07:18:37;;;;;;;2.42;0.70;;;;;;;11.22;73.10;101402.09;1785779;80;21031;-40
2023/03/21 07:21:07;;;;;;;3.72;0.50;;;;;;;11.25;72.87;101405.50;1764335;81;21686;-39
2023/03/21 07:23:37;;;;;;;0.90;0.50;;;;;;;11.32;72.90;101402.20;1785822;80;21184;-39
2023/03/21 07:26:06;;;;;;;1.77;0.70;;;;;;;11.38;72.92;101403.34;1764395;81;21624;-39
2023/03/21 07:28:35;;;;;;;0.68;0.50;;;;;;;11.40;72.31;101401.52;1785714;80;21144;-39
2023/03/21 07:31:07;;;;;;;2.12;0.70;;;;;;;11.43;72.15;101405.35;1764502;81;21172;-39
2023/03/21 07:33:35;;;;;;;0.70;0.50;;;;;;;11.45;71.93;101406.16;1785729;80;21128;-39
2023/03/21 07:36:06;;;;;;;1.20;0.55;;;;;;;11.47;71.51;101404.80;1764571;81;21074;-38
2023/03/21 07:38:35;;;;;;;1.32;0.50;;;;;;;11.46;71.68;101410.54;1764431;80;21148;-38
2023/03/21 07:41:04;;;;;;;2.05;0.40;;;;;;;11.47;71.65;101409.64;1785730;80;21164;-38
2023/03/21 07:43:34;;;;;;;4.28;0.75;;;;;;;11.47;71.33;101408.32;1764201;80;21110;-39
2023/03/21 07:46:03;;;;;;;1.40;0.60;;;;;;;11.46;71.25;101407.91;1776773;81;21062;-39
2023/03/21 07:48:32;;;;;;;1.12;0.40;;;;;;;11.50;71.46;101413.48;1763899;81;21081;-38
2023/03/21 07:51:01;;;;;;;2.67;0.50;;;;;;;11.60;71.60;101415.39;1776966;80;21063;-38
2023/03/21 07:53:30;;;;;;;3.12;0.60;;;;;;;11.62;71.15;101412.23;1763827;81;21122;-38
2023/03/21 07:55:59;;;;;;;0.50;0.50;;;;;;;11.66;71.39;101414.32;1776888;81;21067;-38
2023/03/21 07:58:27;;;;;;;2.27;0.40;;;;;;;11.70;71.19;101414.62;1763758;81;21149;-39
2023/03/21 08:00:57;;;;;;;1.15;0.70;;;;;;;11.70;71.01;101417.25;1776984;81;21122;-39
2023/03/21 08:03:28;;;;;;;1.42;0.62;;;;;;;11.75;71.06;101406.10;1763870;81;21121;-39
2023/03/21 08:05:59;;;;;;;2.72;0.72;;;;;;;11.83;70.46;101405.38;1777024;81;21122;-39
2023/03/21 08:08:27;;;;;;;0.72;0.30;;;;;;;11.88;70.50;101400.81;1763974;81;21466;-39
2023/03/21 08:10:56;;;;;;;4.62;0.70;;;;;;;11.96;69.90;101397.47;1776810;81;21098;-40
2023/03/21 08:13:25;;;;;;;2.47;0.50;;;;;;;12.06;69.65;101391.88;1763987;81;21062;-39
2023/03/21 08:15:53;;;;;;;2.83;0.70;;;;;;;12.13;69.04;101388.95;1776884;81;21059;-39
2023/03/21 08:18:22;;;;;;;0.53;0.37;;;;;;;12.25;68.87;101389.47;1763932;81;21136;-39
2023/03/21 08:20:55;;;;;;;0.68;0.40;;;;;;;12.33;68.48;101385.62;1777022;81;21059;-39
2023/03/21 08:23:24;;;;;;;2.00;0.50;;;;;;;12.39;67.56;101394.23;1763992;81;21102;-39
2023/03/21 08:25:54;;;;;;;0.30;0.30;;;;;;;12.43;67.42;101393.20;1776875;81;21150;-39
2023/03/21 08:28:23;;;;;;;1.85;0.50;;;;;;;12.57;67.47;101390.08;1763976;80;21489;-39
2023/03/21 08:30:52;;;;;;;0.82;0.53;;;;;;;12.66;66.45;101390.58;1776921;80;21063;-39
2023/03/21 08:33:21;;;;;;;2.58;0.50;;;;;;;12.81;66.29;101385.65;1763868;81;21141;-38
2023/03/21 08:35:50;;;;;;;4.03;0.60;;;;;;;12.88;65.15;101374.78;1776973;81;21502;-39
2023/03/21 08:38:20;;;;;;;2.92;0.75;;;;;;;13.05;66.08;101376.76;1763930;81;21211;-39
2023/03/21 08:40:50;;;;;;;0.70;0.70;;;;;;;13.17;65.08;101375.44;1777056;81;21629;-39
2023/03/21 08:43:18;;;;;;;0.78;0.45;;;;;;;13.25;64.76;101382.59;1763966;81;21082;-39
2023/03/21 08:45:47;;;;;;;1.50;0.53;;;;;;;13.32;64.34;101381.92;1779784;79;21118;-39
2023/03/21 08:48:16;;;;;;;0.93;0.53;;;;;;;13.35;63.93;101385.75;1767025;80;21078;-39
2023/03/21 08:50:45;;;;;;;11.05;1.12;;;;;;;13.40;63.90;101387.75;1779926;81;21227;-39
2023/03/21 08:53:14;;;;;;;2.87;0.50;;;;;;;13.43;63.47;101384.99;1767105;81;21078;-39
2023/03/21 08:55:44;;;;;;;1.20;0.50;;;;;;;13.47;63.24;101375.14;1780065;81;21142;-39
2023/03/21 08:58:13;;;;;;;2.25;0.60;;;;;;;13.44;62.92;101384.05;1766895;81;21169;-39
2023/03/21 09:00:41;;;;;;;0.85;0.40;;;;;;;13.40;62.82;101381.14;1779968;81;21047;-39
2023/03/21 09:03:10;;;;;;;1.80;0.50;;;;;;;13.35;62.34;101384.89;1766899;80;21575;-39
2023/03/21 09:05:38;;;;;;;2.55;0.50;;;;;;;13.21;62.45;101390.25;1779992;81;21075;-39
2023/03/21 09:08:07;;;;;;;1.55;0.45;;;;;;;13.17;62.60;101380.72;1767001;81;21489;-39
2023/03/21 09:10:36;;;;;;;2.65;0.50;;;;;;;13.19;62.95;101384.16;1780024;81;21059;-39
2023/03/21 09:13:04;;;;;;;1.50;0.50;;;;;;;13.23;62.84;101379.61;1766902;80;21069;-39
2023/03/21 09:15:34;;;;;;;0.40;0.33;;;;;;;13.17;62.43;101385.13;1779885;81;21125;-41
2023/03/21 09:18:11;;;;;;;10.32;0.62;;;;;;;13.18;62.75;101388.19;1767048;81;21560;-39
2023/03/21 09:20:32;;;;;;;0.93;0.50;;;;;;;13.24;62.59;101391.45;1778739;81;21537;-39
2023/03/21 09:23:01;;;;;;;3.08;0.50;;;;;;;13.26;62.77;101391.37;1766907;80;21160;-39
2023/03/21 09:25:31;;;;;;;2.05;0.60;;;;;;;13.28;62.95;101394.84;1780167;81;21528;-38
2023/03/21 09:28:02;;;;;;;0.88;0.50;;;;;;;13.30;62.86;101393.00;1766824;81;21603;-39
2023/03/21 09:30:32;;;;;;;1.00;0.60;;;;;;;13.24;62.60;101393.22;1779987;81;21161;-39
2023/03/21 09:33:05;;;;;;;2.27;0.60;;;;;;;13.23;62.44;101384.91;1766949;81;21078;-39
2023/03/21 09:35:33;;;;;;;4.03;0.50;;;;;;;13.20;62.32;101385.02;1779945;81;21075;-39
2023/03/21 09:38:02;;;;;;;4.03;1.12;;;;;;;13.24;62.59;101389.25;1766977;81;21074;-38
2023/03/21 09:40:40;;;;;;;0.98;0.40;;;;;;;13.35;62.85;101383.10;1779996;81;21067;-39
2023/03/21 09:43:23;;;;;;;3.75;0.80;;;;;;;13.41;62.80;101388.60;1726680;80;21098;-39
2023/03/21 09:46:01;;;;;;;0.80;0.50;;;;;;;13.44;62.71;101389.34;1778098;79;21103;-39
2023/03/21 09:48:42;;;;;;;1.10;0.50;;;;;;;13.45;62.50;101387.11;1764003;81;21078;-39
2023/03/21 09:51:14;;;;;;;0.80;0.60;;;;;;;13.45;62.72;101387.58;1773134;81;21153;-39
2023/03/21 09:53:46;;;;;;;1.50;0.47;;;;;;;13.50;62.78;101379.85;1764201;81;21537;-39
2023/03/21 09:56:16;;;;;;;1.95;0.70;;;;;;;13.57;62.65;101386.20;1776936;81;21141;-39
2023/03/21 09:58:58;;;;;;;2.27;1.00;;;;;;;13.57;62.57;101379.12;1764026;81;21517;-38
2023/03/21 10:01:31;;;;;;;4.62;0.60;;;;;;;13.64;62.67;101379.73;1776843;81;21102;-39
2023/03/21 10:04:07;;;;;;;6.37;0.80;;;;;;;13.67;62.25;101375.18;1764229;81;21113;-39
2023/03/21 10:06:40;;;;;;;3.08;1.40;;;;;;;13.67;62.28;101373.00;1777069;81;21122;-39
2023/03/21 10:09:21;;;;;;;4.92;1.00;;;;;;;13.68;61.97;101374.70;1763904;81;21097;-39
2023/03/21 10:11:56;;;;;;;2.17;1.00;;;;;;;13.79;62.16;101382.20;1763826;81;21505;-39
2023/03/21 10:14:39;;;;;;;2.10;0.80;;;;;;;13.79;61.63;101373.79;1776934;81;21055;-39
2023/03/21 10:17:26;;;;;;;2.75;0.98;;;;;;;13.80;61.62;101378.17;1764011;81;21039;-39
2023/03/21 10:20:14;;;;;;;1.55;0.78;;;;;;;13.77;61.59;101365.53;1776945;81;21063;-39
2023/03/21 10:22:45;;;;;;;3.70;1.15;;;;;;;13.78;61.41;101370.77;1763669;81;21145;-39
2023/03/21 10:25:17;;;;;;;2.10;0.88;;;;;;;13.85;61.09;101365.61;1776937;81;21067;-39
2023/03/21 10:27:47;;;;;;;1.37;0.68;;;;;;;13.88;60.87;101373.39;1764004;81;21509;-39
2023/03/21 10:30:28;;;;;;;2.25;0.70;;;;;;;13.90;60.85;101370.69;1776991;81;21078;-39
2023/03/21 10:33:01;;;;;;;5.42;0.80;;;;;;;13.95;60.95;101375.33;1763990;81;21165;-39
2023/03/21 10:35:32;;;;;;;5.08;0.98;;;;;;;14.03;60.82;101365.73;1777049;81;21039;-39
2023/03/21 10:38:01;;;;;;;0.90;0.60;;;;;;;14.02;60.62;101370.64;1763865;81;21082;-39
2023/03/21 10:40:29;;;;;;;2.67;0.80;;;;;;;14.00;60.19;101365.41;1776979;80;21573;-39
2023/03/21 10:43:07;;;;;;;8.30;2.65;;;;;;;14.03;60.24;101369.70;1763845;81;21079;-40
2023/03/21 10:45:36;;;;;;;3.90;1.15;;;;;;;14.14;60.55;101362.61;1767244;80;21107;-39
2023/03/21 10:48:07;;;;;;;3.10;1.00;;;;;;;14.11;59.73;101359.65;1763931;81;21557;-39
2023/03/21 10:50:36;;;;;;;2.37;0.90;;;;;;;14.10;60.18;101360.56;1777043;81;21126;-39
2023/03/21 10:53:07;;;;;;;2.22;0.55;;;;;;;14.09;60.16;101358.39;1763978;81;21156;-39
2023/03/21 10:55:39;;;;;;;2.95;0.82;;;;;;;13.99;59.85;101362.82;1776006;81;21078;-39
2023/03/21 10:58:11;;;;;;;4.65;0.88;;;;;;;13.94;60.16;101356.38;1763824;81;21148;-39
2023/03/21 11:00:43;;;;;;;2.75;1.35;;;;;;;14.00;60.32;101360.55;1776854;80;21095;-39
2023/03/21 11:03:24;;;;;;;5.17;1.70;;;;;;;14.12;60.40;101354.73;1764004;81;21176;-39
2023/03/21 11:05:58;;;;;;;2.62;0.95;;;;;;;14.26;59.80;101352.34;1765004;81;21162;-39
2023/03/21 11:08:28;;;;;;;3.50;1.37;;;;;;;14.35;59.15;101359.02;1763374;81;21548;-39
2023/03/21 11:11:05;;;;;;;5.15;0.80;;;;;;;14.20;58.35;101357.03;1777027;81;21067;-39
2023/03/21 11:13:45;;;;;;;2.95;0.80;;;;;;;14.08;58.44;101347.86;1763142;81;21082;-39
2023/03/21 11:16:22;;;;;;;2.30;0.70;;;;;;;13.92;58.34;101354.74;1776993;81;21035;-39
2023/03/21 11:18:53;;;;;;;2.75;0.78;;;;;;;13.84;59.04;101351.96;1763505;81;21078;-39
2023/03/21 11:21:26;;;;;;;3.33;0.78;;;;;;;13.81;58.96;101350.75;1763850;81;21489;-39
2023/03/21 11:23:55;;;;;;;1.98;0.90;;;;;;;13.79;59.00;101347.79;1776623;81;21514;-39
2023/03/21 11:26:36;;;;;;;3.30;1.15;;;;;;;13.74;59.01;101353.30;1763880;81;21070;-39
2023/03/21 11:29:41;;;;;;;4.62;0.82;;;;;;;13.73;59.12;101354.68;1776902;81;21087;-39
2023/03/21 11:32:15;;;;;;;2.90;1.10;;;;;;;13.75;59.15;101348.38;1763801;80;21200;-39
2023/03/21 11:35:03;;;;;;;4.78;0.80;;;;;;;13.82;59.28;101353.81;1777142;80;21079;-39
2023/03/21 11:37:35;;;;;;;4.20;1.30;;;;;;;13.94;59.36;101358.19;1763881;81;21623;-39
2023/03/21 11:40:26;;;;;;;1.17;0.90;;;;;;;13.96;59.21;101355.00;1777009;80;21153;-39
2023/03/21 11:42:58;;;;;;;3.05;0.70;;;;;;;14.04;59.39;101354.22;1753918;81;21098;-39
2023/03/21 11:45:30;;;;;;;4.78;1.00;;;;;;;14.06;59.09;101352.36;1776911;81;21047;-39
2023/03/21 11:48:01;;;;;;;3.12;0.70;;;;;;;14.02;58.74;101348.14;1763900;81;21180;-40
2023/03/21 11:50:38;;;;;;;3.15;0.57;;;;;;;13.94;57.87;101352.41;1776903;81;21185;-40